createdAt,value
2022-10-13T00:02:32.125Z,37.30
2022-10-13T00:06:33.970Z,39.20
2022-10-13T00:10:38.406Z,49.00
2022-10-13T00:14:41.733Z,34.60
2022-10-13T00:18:45.286Z,38.70
2022-10-13T00:22:47.163Z,45.10
2022-10-13T00:26:50.175Z,52.90
2022-10-13T00:30:53.996Z,40.00
2022-10-13T00:34:57.236Z,38.60
2022-10-13T00:38:59.120Z,38.50
2022-10-13T00:43:01.016Z,40.20
2022-10-13T00:47:02.979Z,33.40
2022-10-13T00:51:07.423Z,38.40
2022-10-13T00:55:13.188Z,34.20
2022-10-13T00:59:23.721Z,33.40
2022-10-13T01:03:28.329Z,38.30
2022-10-13T01:07:31.217Z,34.30
2022-10-13T01:11:46.329Z,32.40
2022-10-13T01:15:57.612Z,32.50
2022-10-13T01:19:59.371Z,48.10
2022-10-13T01:24:32.430Z,40.10
2022-10-13T01:28:52.847Z,43.60
2022-10-13T01:33:16.045Z,47.40
2022-10-13T01:38:00.333Z,37.20
2022-10-13T01:42:12.875Z,42.50
2022-10-13T01:46:34.617Z,34.80
2022-10-13T01:50:38.348Z,34.60
2022-10-13T01:54:40.406Z,31.20
2022-10-13T01:58:42.809Z,30.50
2022-10-13T02:02:48.173Z,31.40
2022-10-13T02:07:09.386Z,35.50
2022-10-13T02:11:17.049Z,31.30
2022-10-13T02:15:23.132Z,31.10
2022-10-13T02:19:25.613Z,28.50
2022-10-13T02:23:28.441Z,44.40
2022-10-13T02:27:30.372Z,32.80
2022-10-13T02:31:32.293Z,32.00
2022-10-13T02:35:34.466Z,27.00
2022-10-13T02:39:37.082Z,34.60
2022-10-13T02:43:39.042Z,23.70
2022-10-13T02:47:40.984Z,28.40
2022-10-13T02:51:42.775Z,30.70
2022-10-13T02:55:44.637Z,33.10
2022-10-13T02:59:46.494Z,38.40
2022-10-13T03:03:48.382Z,27.90
2022-10-13T03:07:50.212Z,33.70
2022-10-13T03:11:52.040Z,34.60
2022-10-13T03:15:53.899Z,32.50
2022-10-13T03:19:55.798Z,26.70
2022-10-13T03:23:57.672Z,29.00
2022-10-13T03:28:00.856Z,33.60
2022-10-13T03:32:03.006Z,28.60
2022-10-13T03:36:05.628Z,29.40
2022-10-13T03:40:08.416Z,33.10
2022-10-13T03:44:15.302Z,27.50
2022-10-13T03:48:17.199Z,28.30
2022-10-13T03:52:19.221Z,31.00
2022-10-13T03:56:24.701Z,24.10
2022-10-13T04:00:26.956Z,27.60
2022-10-13T04:04:28.749Z,26.80
2022-10-13T04:08:32.768Z,27.90
2022-10-13T04:12:34.825Z,29.10
2022-10-13T04:16:39.209Z,33.40
2022-10-13T04:20:41.576Z,30.10
2022-10-13T04:24:43.576Z,29.90
2022-10-13T04:28:47.468Z,34.90
2022-10-13T04:32:49.340Z,36.10
2022-10-13T04:36:52.761Z,33.90
2022-10-13T04:40:54.548Z,34.00
2022-10-13T04:44:56.446Z,30.00
2022-10-13T04:48:59.340Z,28.90
2022-10-13T04:53:07.106Z,37.00
2022-10-13T04:57:08.932Z,28.90
2022-10-13T05:01:17.669Z,30.20
2022-10-13T05:05:23.141Z,27.10
2022-10-13T05:09:25.233Z,34.70
2022-10-13T05:13:29.164Z,41.70
2022-10-13T05:17:35.258Z,43.30
2022-10-13T05:21:42.587Z,37.30
2022-10-13T05:25:44.679Z,41.80
2022-10-13T05:29:47.869Z,31.50
2022-10-13T05:33:51.652Z,35.40
2022-10-13T05:37:57.322Z,28.20
2022-10-13T05:41:59.171Z,27.90
2022-10-13T05:46:01.632Z,26.80
2022-10-13T05:50:04.936Z,36.10
2022-10-13T05:54:12.920Z,34.00
2022-10-13T05:58:15.293Z,37.90
2022-10-13T06:02:21.692Z,32.60
2022-10-13T06:06:27.915Z,34.10
2022-10-13T06:10:33.191Z,44.90
2022-10-13T06:14:35.578Z,42.00
2022-10-13T06:18:41.073Z,31.40
2022-10-13T06:22:43.009Z,36.20
2022-10-13T06:26:44.914Z,39.20
2022-10-13T06:30:53.063Z,42.50
2022-10-13T06:34:55.871Z,34.60
2022-10-13T06:38:57.741Z,36.60
2022-10-13T06:42:59.917Z,32.80
2022-10-13T06:47:03.281Z,33.40
2022-10-13T06:51:10.176Z,36.40
2022-10-13T06:55:12.185Z,36.00
2022-10-13T06:59:14.156Z,37.70
2022-10-13T07:03:20.045Z,39.60
2022-10-13T07:07:22.084Z,38.50
2022-10-13T07:11:24.649Z,33.70
2022-10-13T07:15:29.700Z,36.80
2022-10-13T07:19:31.655Z,35.80
2022-10-13T07:23:33.641Z,40.70
2022-10-13T07:27:37.621Z,36.40
2022-10-13T07:31:41.846Z,34.10
2022-10-13T07:35:43.727Z,35.80
2022-10-13T07:39:45.542Z,36.60
2022-10-13T07:43:47.614Z,38.00
2022-10-13T07:47:49.696Z,39.70
2022-10-13T07:51:51.988Z,42.50
2022-10-13T07:55:55.093Z,38.80
2022-10-13T07:59:57.182Z,33.70
2022-10-13T08:03:59.065Z,35.40
2022-10-13T08:08:00.949Z,29.90
2022-10-13T08:12:03.442Z,32.10
2022-10-13T08:16:05.537Z,30.60
2022-10-13T08:20:07.881Z,39.40
2022-10-13T08:24:13.401Z,27.90
2022-10-13T08:28:17.468Z,23.50
2022-10-13T08:32:20.886Z,20.80
2022-10-13T08:36:23.484Z,23.90
2022-10-13T08:40:25.631Z,14.80
2022-10-13T08:45:10.789Z,15.80
2022-10-13T08:49:05.465Z,21.50
2022-10-13T08:53:16.111Z,15.90
2022-10-13T08:57:21.994Z,12.90
2022-10-13T09:01:36.106Z,19.40
2022-10-13T09:05:49.615Z,23.20
2022-10-13T09:09:53.050Z,12.30
2022-10-13T09:13:57.512Z,25.10
2022-10-13T09:18:12.641Z,15.80
2022-10-13T09:22:38.742Z,15.40
2022-10-13T09:26:41.855Z,11.70
2022-10-13T09:30:46.643Z,18.30
2022-10-13T09:34:49.285Z,18.00
2022-10-13T09:39:14.192Z,11.20
2022-10-13T09:43:31.762Z,13.50
2022-10-13T09:47:34.138Z,18.00
2022-10-13T09:51:40.469Z,13.30
2022-10-13T09:56:23.251Z,16.60
2022-10-13T10:00:27.537Z,16.00
2022-10-13T10:04:37.374Z,12.70
2022-10-13T10:09:02.664Z,14.00
2022-10-13T10:13:12.535Z,17.50
2022-10-13T10:17:26.520Z,11.20
2022-10-13T10:21:43.149Z,11.80
2022-10-13T10:25:58.805Z,10.20
2022-10-13T10:30:12.604Z,14.30
2022-10-13T10:34:32.523Z,18.10
2022-10-13T10:38:42.312Z,14.40
2022-10-13T10:42:52.353Z,12.00
2022-10-13T10:47:02.439Z,18.80
2022-10-13T10:51:09.736Z,18.30
2022-10-13T10:55:26.151Z,14.30
2022-10-13T10:59:41.219Z,19.70
2022-10-13T11:03:47.179Z,12.50
2022-10-13T11:07:51.913Z,9.90
2022-10-13T11:11:53.901Z,12.30
2022-10-13T11:15:56.088Z,11.10
2022-10-13T11:19:58.982Z,13.10
2022-10-13T11:24:02.255Z,11.90
2022-10-13T11:28:22.661Z,16.50
2022-10-13T11:32:30.272Z,15.80
2022-10-13T11:36:38.959Z,21.00
2022-10-13T11:40:56.435Z,15.10
2022-10-13T11:45:03.838Z,16.10
2022-10-13T11:49:07.451Z,13.10
2022-10-13T11:53:23.924Z,16.20
2022-10-13T11:57:27.780Z,10.60
2022-10-13T12:01:29.787Z,11.50
2022-10-13T12:05:32.361Z,9.70
2022-10-13T12:09:39.402Z,12.80
2022-10-13T12:13:46.184Z,14.60
2022-10-13T12:17:50.180Z,6.60
2022-10-13T12:21:55.202Z,10.90
2022-10-13T12:25:58.414Z,15.40
2022-10-13T12:30:01.761Z,8.60
2022-10-13T12:34:04.363Z,8.70
2022-10-13T12:38:18.972Z,15.60
2022-10-13T12:42:29.098Z,19.80
2022-10-13T12:46:42.553Z,9.20
2022-10-13T12:50:44.491Z,13.80
2022-10-13T12:54:55.737Z,10.30
2022-10-13T12:58:59.200Z,11.70
2022-10-13T13:03:04.067Z,13.90
2022-10-13T13:07:36.598Z,16.80
2022-10-13T13:11:39.237Z,12.00
2022-10-13T13:15:44.212Z,14.50
2022-10-13T13:19:55.214Z,9.40
2022-10-13T13:23:57.067Z,13.20
2022-10-13T13:27:58.932Z,9.10
2022-10-13T13:32:00.747Z,11.00
2022-10-13T13:36:02.595Z,9.40
2022-10-13T13:40:06.317Z,9.80
2022-10-13T13:44:08.205Z,11.30
2022-10-13T13:48:12.575Z,26.80
2022-10-13T13:52:15.172Z,10.90
2022-10-13T13:56:18.641Z,19.20
2022-10-13T14:00:21.225Z,16.20
2022-10-13T14:04:29.564Z,13.60
2022-10-13T14:08:33.902Z,19.10
2022-10-13T14:12:37.275Z,10.90
2022-10-13T14:16:41.077Z,16.50
2022-10-13T14:20:43.377Z,16.80
2022-10-13T14:24:45.419Z,13.00
2022-10-13T14:28:47.529Z,9.70
2022-10-13T14:32:49.443Z,10.60
2022-10-13T14:36:51.418Z,11.70
2022-10-13T14:41:03.896Z,10.50
2022-10-13T14:45:06.333Z,10.30
2022-10-13T14:49:10.417Z,9.80
2022-10-13T14:53:15.996Z,13.50
2022-10-13T14:57:18.233Z,13.40
2022-10-13T15:01:20.672Z,12.20
2022-10-13T15:05:22.639Z,14.00
2022-10-13T15:09:33.493Z,14.20
2022-10-13T15:13:48.764Z,8.80
2022-10-13T15:17:50.631Z,8.90
2022-10-13T15:21:52.908Z,16.70
2022-10-13T15:25:57.993Z,12.60
2022-10-13T15:30:00.228Z,12.00
2022-10-13T15:34:02.109Z,14.80
2022-10-13T15:38:03.909Z,10.00
2022-10-13T15:42:05.784Z,10.40
2022-10-13T15:46:11.806Z,15.10
2022-10-13T15:50:14.711Z,10.20
2022-10-13T15:54:17.315Z,18.10
2022-10-13T15:58:19.193Z,11.50
2022-10-13T16:02:23.045Z,14.50
2022-10-13T16:06:26.260Z,16.30
2022-10-13T16:10:28.125Z,30.00
2022-10-13T16:14:30.106Z,27.00
2022-10-13T16:18:36.017Z,25.20
2022-10-13T16:22:38.100Z,30.00
2022-10-13T16:26:40.397Z,32.80
2022-10-13T16:30:42.765Z,41.30
2022-10-13T16:34:47.455Z,30.30
2022-10-13T16:38:54.446Z,40.90
2022-10-13T16:42:56.227Z,19.60
2022-10-13T16:47:00.112Z,17.20
2022-10-13T16:51:11.850Z,24.70
2022-10-13T16:55:15.246Z,25.30
2022-10-13T16:59:17.423Z,31.50
2022-10-13T17:03:19.340Z,42.90
2022-10-13T17:07:23.219Z,50.80
2022-10-13T17:11:28.308Z,35.40
2022-10-13T17:15:30.183Z,48.70
2022-10-13T17:19:32.204Z,29.30
2022-10-13T17:23:34.444Z,28.00
2022-10-13T17:27:36.984Z,20.70
2022-10-13T17:31:38.914Z,33.40
2022-10-13T17:35:40.866Z,37.00
2022-10-13T17:39:42.933Z,37.70
2022-10-13T17:43:45.040Z,66.20
2022-10-13T17:47:48.764Z,57.80
2022-10-13T17:51:53.131Z,58.40
2022-10-13T17:56:02.762Z,51.60
2022-10-13T18:00:06.018Z,43.80
2022-10-13T18:04:17.327Z,40.80
2022-10-13T18:08:20.024Z,34.70
2022-10-13T18:12:21.907Z,44.50
2022-10-13T18:16:24.052Z,45.50
2022-10-13T18:20:26.597Z,78.10
2022-10-13T18:24:28.533Z,107.60
2022-10-13T18:28:32.278Z,96.50
2022-10-13T18:32:34.266Z,73.10
2022-10-13T18:36:38.448Z,61.00
2022-10-13T18:40:43.486Z,62.20
2022-10-13T18:44:45.541Z,47.70
2022-10-13T18:48:47.479Z,53.80
2022-10-13T18:52:49.332Z,62.30
2022-10-13T18:56:52.720Z,49.10
2022-10-13T19:00:59.860Z,50.80
2022-10-13T19:05:02.026Z,56.70
2022-10-13T19:09:07.306Z,46.00
2022-10-13T19:13:11.135Z,55.00
2022-10-13T19:17:13.213Z,53.10
2022-10-13T19:21:16.244Z,43.40
2022-10-13T19:25:18.238Z,45.40
2022-10-13T19:29:20.296Z,46.00
2022-10-13T19:33:22.209Z,45.90
2022-10-13T19:37:24.150Z,44.60
2022-10-13T19:41:28.652Z,33.70
2022-10-13T19:45:31.289Z,62.20
2022-10-13T19:49:33.194Z,40.80
2022-10-13T19:53:36.495Z,34.90
2022-10-13T19:57:38.651Z,35.70
2022-10-13T20:01:40.631Z,28.90
2022-10-13T20:05:47.404Z,34.90
2022-10-13T20:09:49.267Z,40.30
2022-10-13T20:13:52.371Z,32.20
2022-10-13T20:17:54.231Z,34.80
2022-10-13T20:21:56.095Z,42.30
2022-10-13T20:26:06.460Z,30.20
2022-10-13T20:30:10.177Z,36.80
2022-10-13T20:34:12.140Z,27.70
2022-10-13T20:38:14.321Z,50.80
2022-10-13T20:42:16.232Z,48.40
2022-10-13T20:46:21.162Z,41.60
2022-10-13T20:50:23.014Z,45.20
2022-10-13T20:54:24.973Z,45.70
2022-10-13T20:58:30.371Z,45.60
2022-10-13T21:02:32.909Z,50.30
2022-10-13T21:06:36.010Z,39.50
2022-10-13T21:10:37.979Z,41.30
2022-10-13T21:14:40.163Z,35.20
2022-10-13T21:18:51.346Z,40.90
2022-10-13T21:22:54.313Z,33.00
2022-10-13T21:26:56.234Z,28.40
2022-10-13T21:31:00.129Z,28.40
2022-10-13T21:35:02.282Z,32.40
2022-10-13T21:39:05.615Z,33.40
2022-10-13T21:43:08.037Z,31.30
2022-10-13T21:47:09.919Z,27.90
2022-10-13T21:51:15.312Z,30.50
2022-10-13T21:55:17.168Z,37.30
2022-10-13T21:59:19.958Z,37.70
2022-10-13T22:03:21.792Z,34.30
2022-10-13T22:07:23.721Z,33.90
2022-10-13T22:11:28.685Z,32.30
2022-10-13T22:15:33.992Z,33.70
2022-10-13T22:19:36.489Z,29.90
2022-10-13T22:23:38.434Z,34.80
2022-10-13T22:27:40.277Z,29.30
2022-10-13T22:31:42.344Z,31.10
2022-10-13T22:35:46.297Z,30.80
2022-10-13T22:39:49.077Z,24.30
2022-10-13T22:43:55.945Z,26.20
2022-10-13T22:47:57.955Z,26.90
2022-10-13T22:51:59.785Z,27.10
2022-10-13T22:56:05.680Z,25.40
2022-10-13T23:00:09.770Z,35.30
2022-10-13T23:04:13.585Z,24.70
2022-10-13T23:08:15.555Z,28.10
2022-10-13T23:12:17.956Z,35.50
2022-10-13T23:16:23.105Z,32.70
2022-10-13T23:20:25.079Z,30.00
2022-10-13T23:24:27.094Z,21.40
2022-10-13T23:28:30.129Z,29.70
2022-10-13T23:32:32.252Z,26.10
2022-10-13T23:36:34.203Z,29.90
2022-10-13T23:40:36.312Z,37.90
2022-10-13T23:44:38.690Z,32.70
2022-10-13T23:48:41.097Z,29.20
2022-10-13T23:52:43.001Z,34.50
2022-10-13T23:56:44.863Z,29.70
